sensor_id;sensor_type;location;lat;lon;timestamp;pressure;altitude;pressure_sealevel;temperature;humidity
22333;BME280;11334;36.986;-121.936;2023-05-31T00:01:55;101009.06;;;30.40;30.42
22333;BME280;11334;36.986;-121.936;2023-05-31T00:04:21;100998.66;;;30.32;30.40
22333;BME280;11334;36.986;-121.936;2023-05-31T00:06:47;101007.34;;;30.58;30.97
22333;BME280;11334;36.986;-121.936;2023-05-31T00:09:14;101004.25;;;30.80;30.69
22333;BME280;11334;36.986;-121.936;2023-05-31T00:11:40;101004.13;;;31.04;29.87
22333;BME280;11334;36.986;-121.936;2023-05-31T00:14:06;101005.22;;;31.03;30.22
22333;BME280;11334;36.986;-121.936;2023-05-31T00:16:33;101005.06;;;31.23;29.51
22333;BME280;11334;36.986;-121.936;2023-05-31T00:18:59;101009.91;;;31.46;28.46
22333;BME280;11334;36.986;-121.936;2023-05-31T00:21:25;101008.34;;;31.30;29.40
22333;BME280;11334;36.986;-121.936;2023-05-31T00:23:52;101001.53;;;31.22;29.24
22333;BME280;11334;36.986;-121.936;2023-05-31T00:26:18;101001.22;;;31.34;29.31
22333;BME280;11334;36.986;-121.936;2023-05-31T00:28:44;101003.34;;;31.42;29.42
22333;BME280;11334;36.986;-121.936;2023-05-31T00:31:10;101011.91;;;31.68;28.70
22333;BME280;11334;36.986;-121.936;2023-05-31T00:33:37;101009.13;;;31.73;28.20
22333;BME280;11334;36.986;-121.936;2023-05-31T00:36:04;101005.31;;;31.36;28.53
22333;BME280;11334;36.986;-121.936;2023-05-31T00:38:31;100997.19;;;31.54;28.02
22333;BME280;11334;36.986;-121.936;2023-05-31T00:40:57;100996.66;;;31.15;28.62
22333;BME280;11334;36.986;-121.936;2023-05-31T00:43:23;101005.31;;;31.36;29.09
22333;BME280;11334;36.986;-121.936;2023-05-31T00:45:52;100992.91;;;31.44;28.66
22333;BME280;11334;36.986;-121.936;2023-05-31T00:48:19;101001.56;;;30.65;28.83
22333;BME280;11334;36.986;-121.936;2023-05-31T00:50:45;100992.09;;;31.00;28.94
22333;BME280;11334;36.986;-121.936;2023-05-31T00:53:12;100989.47;;;30.81;28.98
22333;BME280;11334;36.986;-121.936;2023-05-31T00:55:38;101005.56;;;30.92;29.01
22333;BME280;11334;36.986;-121.936;2023-05-31T00:58:04;101003.06;;;30.95;29.30
22333;BME280;11334;36.986;-121.936;2023-05-31T01:00:31;100989.44;;;30.85;29.94
22333;BME280;11334;36.986;-121.936;2023-05-31T01:02:57;100992.34;;;31.04;29.74
22333;BME280;11334;36.986;-121.936;2023-05-31T01:05:28;101000.06;;;30.97;28.51
22333;BME280;11334;36.986;-121.936;2023-05-31T01:07:55;100991.91;;;30.87;28.81
22333;BME280;11334;36.986;-121.936;2023-05-31T01:10:21;101003.19;;;31.28;29.61
22333;BME280;11334;36.986;-121.936;2023-05-31T01:13:12;101004.56;;;31.21;29.15
22333;BME280;11334;36.986;-121.936;2023-05-31T01:15:52;101000.59;;;30.99;29.31
22333;BME280;11334;36.986;-121.936;2023-05-31T01:19:00;101007.06;;;31.13;28.89
22333;BME280;11334;36.986;-121.936;2023-05-31T01:21:26;101004.59;;;31.16;28.41
22333;BME280;11334;36.986;-121.936;2023-05-31T01:24:25;101010.97;;;30.34;29.48
22333;BME280;11334;36.986;-121.936;2023-05-31T01:26:55;101006.09;;;30.21;29.09
22333;BME280;11334;36.986;-121.936;2023-05-31T01:29:27;101013.75;;;30.15;29.94
22333;BME280;11334;36.986;-121.936;2023-05-31T01:31:55;101011.88;;;29.95;30.20
22333;BME280;11334;36.986;-121.936;2023-05-31T01:34:24;101011.06;;;29.90;30.80
22333;BME280;11334;36.986;-121.936;2023-05-31T01:36:50;101009.97;;;29.81;30.86
22333;BME280;11334;36.986;-121.936;2023-05-31T01:39:18;101008.84;;;29.57;30.67
22333;BME280;11334;36.986;-121.936;2023-05-31T01:41:46;101001.47;;;29.38;31.77
22333;BME280;11334;36.986;-121.936;2023-05-31T01:44:14;101003.84;;;29.05;31.60
22333;BME280;11334;36.986;-121.936;2023-05-31T01:46:42;101005.47;;;28.96;32.72
22333;BME280;11334;36.986;-121.936;2023-05-31T01:49:09;101005.16;;;28.88;32.65
22333;BME280;11334;36.986;-121.936;2023-05-31T01:51:37;100996.13;;;28.73;32.92
22333;BME280;11334;36.986;-121.936;2023-05-31T01:54:06;100982.41;;;28.53;32.82
22333;BME280;11334;36.986;-121.936;2023-05-31T01:56:32;100995.81;;;28.60;32.99
22333;BME280;11334;36.986;-121.936;2023-05-31T01:58:59;100996.97;;;28.27;33.27
22333;BME280;11334;36.986;-121.936;2023-05-31T02:01:26;100993.13;;;28.24;33.30
22333;BME280;11334;36.986;-121.936;2023-05-31T02:03:53;100992.25;;;28.13;33.65
22333;BME280;11334;36.986;-121.936;2023-05-31T02:06:19;100996.31;;;28.06;34.54
22333;BME280;11334;36.986;-121.936;2023-05-31T02:08:46;100996.09;;;27.81;33.92
22333;BME280;11334;36.986;-121.936;2023-05-31T02:11:13;101002.09;;;27.78;34.77
22333;BME280;11334;36.986;-121.936;2023-05-31T02:13:39;100997.53;;;27.53;34.85
22333;BME280;11334;36.986;-121.936;2023-05-31T02:16:05;100989.00;;;27.44;35.71
22333;BME280;11334;36.986;-121.936;2023-05-31T02:18:32;100998.03;;;27.50;35.53
22333;BME280;11334;36.986;-121.936;2023-05-31T02:20:58;100993.13;;;27.21;35.46
22333;BME280;11334;36.986;-121.936;2023-05-31T02:23:25;100990.16;;;26.96;35.99
22333;BME280;11334;36.986;-121.936;2023-05-31T02:25:51;100978.53;;;26.79;36.37
22333;BME280;11334;36.986;-121.936;2023-05-31T02:28:18;101000.94;;;26.44;36.67
22333;BME280;11334;36.986;-121.936;2023-05-31T02:30:54;101001.41;;;26.20;37.43
22333;BME280;11334;36.986;-121.936;2023-05-31T02:33:21;101000.94;;;25.90;37.23
22333;BME280;11334;36.986;-121.936;2023-05-31T02:35:48;101004.53;;;25.47;38.22
22333;BME280;11334;36.986;-121.936;2023-05-31T02:38:15;101000.78;;;25.04;39.53
22333;BME280;11334;36.986;-121.936;2023-05-31T02:40:41;101004.63;;;24.92;40.27
22333;BME280;11334;36.986;-121.936;2023-05-31T02:43:07;101005.63;;;24.63;41.17
22333;BME280;11334;36.986;-121.936;2023-05-31T02:45:33;101003.47;;;24.49;41.69
22333;BME280;11334;36.986;-121.936;2023-05-31T02:48:00;101008.44;;;24.18;41.89
22333;BME280;11334;36.986;-121.936;2023-05-31T02:50:31;101012.78;;;24.08;42.41
22333;BME280;11334;36.986;-121.936;2023-05-31T02:52:58;101016.81;;;23.82;43.33
22333;BME280;11334;36.986;-121.936;2023-05-31T02:55:26;101022.47;;;23.70;44.13
22333;BME280;11334;36.986;-121.936;2023-05-31T02:57:53;101028.16;;;23.50;44.34
22333;BME280;11334;36.986;-121.936;2023-05-31T03:00:19;101031.66;;;23.40;44.89
22333;BME280;11334;36.986;-121.936;2023-05-31T03:02:46;101034.53;;;23.15;45.80
22333;BME280;11334;36.986;-121.936;2023-05-31T03:05:12;101036.13;;;23.05;45.85
22333;BME280;11334;36.986;-121.936;2023-05-31T03:07:39;101034.44;;;22.93;46.50
22333;BME280;11334;36.986;-121.936;2023-05-31T03:10:06;101045.25;;;22.75;47.07
22333;BME280;11334;36.986;-121.936;2023-05-31T03:12:33;101041.84;;;22.68;47.42
22333;BME280;11334;36.986;-121.936;2023-05-31T03:14:59;101038.31;;;22.50;47.95
22333;BME280;11334;36.986;-121.936;2023-05-31T03:17:26;101056.16;;;22.33;48.74
22333;BME280;11334;36.986;-121.936;2023-05-31T03:19:52;101045.03;;;22.23;48.84
22333;BME280;11334;36.986;-121.936;2023-05-31T03:22:18;101058.03;;;22.15;48.82
22333;BME280;11334;36.986;-121.936;2023-05-31T03:24:46;101058.13;;;22.02;49.13
22333;BME280;11334;36.986;-121.936;2023-05-31T03:27:13;101056.88;;;21.81;49.52
22333;BME280;11334;36.986;-121.936;2023-05-31T03:29:41;101065.47;;;21.71;49.30
22333;BME280;11334;36.986;-121.936;2023-05-31T03:32:08;101063.25;;;21.62;49.94
22333;BME280;11334;36.986;-121.936;2023-05-31T03:34:34;101055.16;;;21.31;50.69
22333;BME280;11334;36.986;-121.936;2023-05-31T03:37:01;101059.41;;;21.15;51.77
22333;BME280;11334;36.986;-121.936;2023-05-31T03:39:27;101050.75;;;21.13;51.44
22333;BME280;11334;36.986;-121.936;2023-05-31T03:41:54;101058.81;;;21.13;51.54
22333;BME280;11334;36.986;-121.936;2023-05-31T03:44:20;101058.88;;;21.00;51.84
22333;BME280;11334;36.986;-121.936;2023-05-31T03:46:46;101058.00;;;20.69;52.62
22333;BME280;11334;36.986;-121.936;2023-05-31T03:49:13;101056.56;;;20.66;52.84
22333;BME280;11334;36.986;-121.936;2023-05-31T03:51:39;101054.09;;;20.52;52.64
22333;BME280;11334;36.986;-121.936;2023-05-31T03:54:05;101058.91;;;20.44;53.16
22333;BME280;11334;36.986;-121.936;2023-05-31T03:56:32;101068.91;;;20.24;53.69
22333;BME280;11334;36.986;-121.936;2023-05-31T03:58:58;101065.97;;;20.26;53.47
22333;BME280;11334;36.986;-121.936;2023-05-31T04:01:24;101074.09;;;20.19;53.61
22333;BME280;11334;36.986;-121.936;2023-05-31T04:03:51;101069.53;;;20.13;53.91
22333;BME280;11334;36.986;-121.936;2023-05-31T04:06:17;101071.81;;;20.10;53.81
22333;BME280;11334;36.986;-121.936;2023-05-31T04:08:44;101065.81;;;19.89;54.27
22333;BME280;11334;36.986;-121.936;2023-05-31T04:11:10;101076.81;;;19.87;53.80
22333;BME280;11334;36.986;-121.936;2023-05-31T04:13:36;101076.38;;;19.84;54.42
22333;BME280;11334;36.986;-121.936;2023-05-31T04:16:03;101071.84;;;19.78;54.19
22333;BME280;11334;36.986;-121.936;2023-05-31T04:18:29;101069.34;;;19.70;54.61
22333;BME280;11334;36.986;-121.936;2023-05-31T04:20:55;101072.25;;;19.62;55.37
22333;BME280;11334;36.986;-121.936;2023-05-31T04:23:21;101078.84;;;19.60;55.88
22333;BME280;11334;36.986;-121.936;2023-05-31T04:25:48;101081.13;;;19.56;56.10
22333;BME280;11334;36.986;-121.936;2023-05-31T04:28:14;101087.72;;;19.41;56.49
22333;BME280;11334;36.986;-121.936;2023-05-31T04:30:41;101098.44;;;19.34;57.09
22333;BME280;11334;36.986;-121.936;2023-05-31T04:33:07;101100.91;;;19.23;57.33
22333;BME280;11334;36.986;-121.936;2023-05-31T04:35:33;101098.41;;;19.22;58.03
22333;BME280;11334;36.986;-121.936;2023-05-31T04:38:00;101096.16;;;19.19;58.75
22333;BME280;11334;36.986;-121.936;2023-05-31T04:40:28;101099.84;;;19.11;59.73
22333;BME280;11334;36.986;-121.936;2023-05-31T04:42:58;101098.50;;;18.88;60.44
22333;BME280;11334;36.986;-121.936;2023-05-31T04:45:27;101095.22;;;18.93;60.90
22333;BME280;11334;36.986;-121.936;2023-05-31T04:47:54;101095.22;;;18.93;61.34
22333;BME280;11334;36.986;-121.936;2023-05-31T04:50:21;101095.78;;;18.75;61.32
22333;BME280;11334;36.986;-121.936;2023-05-31T04:52:48;101095.16;;;18.73;61.99
22333;BME280;11334;36.986;-121.936;2023-05-31T04:55:14;101100.94;;;18.77;62.52
22333;BME280;11334;36.986;-121.936;2023-05-31T04:57:41;101107.13;;;18.71;63.21
22333;BME280;11334;36.986;-121.936;2023-05-31T05:00:07;101098.00;;;18.66;63.74
22333;BME280;11334;36.986;-121.936;2023-05-31T05:02:35;101110.16;;;18.62;64.32
22333;BME280;11334;36.986;-121.936;2023-05-31T05:05:02;101098.31;;;18.50;64.94
22333;BME280;11334;36.986;-121.936;2023-05-31T05:07:30;101107.38;;;18.42;65.33
22333;BME280;11334;36.986;-121.936;2023-05-31T05:09:56;101098.41;;;18.29;65.96
22333;BME280;11334;36.986;-121.936;2023-05-31T05:12:22;101105.19;;;18.25;66.53
22333;BME280;11334;36.986;-121.936;2023-05-31T05:14:48;101099.00;;;18.25;66.91
22333;BME280;11334;36.986;-121.936;2023-05-31T05:17:15;101103.53;;;18.24;66.80
22333;BME280;11334;36.986;-121.936;2023-05-31T05:19:41;101105.59;;;18.22;67.09
22333;BME280;11334;36.986;-121.936;2023-05-31T05:22:07;101104.72;;;18.15;67.29
22333;BME280;11334;36.986;-121.936;2023-05-31T05:24:33;101089.72;;;18.00;67.80
22333;BME280;11334;36.986;-121.936;2023-05-31T05:26:59;101089.91;;;17.99;67.62
22333;BME280;11334;36.986;-121.936;2023-05-31T05:29:26;101105.03;;;18.06;67.92
22333;BME280;11334;36.986;-121.936;2023-05-31T05:31:52;101109.31;;;18.01;68.24
22333;BME280;11334;36.986;-121.936;2023-05-31T05:34:19;101109.53;;;17.99;68.26
22333;BME280;11334;36.986;-121.936;2023-05-31T05:36:48;101116.47;;;17.94;68.78
22333;BME280;11334;36.986;-121.936;2023-05-31T05:39:14;101103.03;;;17.87;69.44
22333;BME280;11334;36.986;-121.936;2023-05-31T05:41:40;101105.16;;;17.71;70.31
22333;BME280;11334;36.986;-121.936;2023-05-31T05:44:06;101110.09;;;17.68;70.37
22333;BME280;11334;36.986;-121.936;2023-05-31T05:46:33;101110.50;;;17.71;70.64
22333;BME280;11334;36.986;-121.936;2023-05-31T05:48:59;101108.19;;;17.62;71.07
22333;BME280;11334;36.986;-121.936;2023-05-31T05:51:25;101104.78;;;17.53;71.31
22333;BME280;11334;36.986;-121.936;2023-05-31T05:53:51;101102.09;;;17.53;71.46
22333;BME280;11334;36.986;-121.936;2023-05-31T05:56:18;101109.75;;;17.56;71.34
22333;BME280;11334;36.986;-121.936;2023-05-31T05:58:45;101110.63;;;17.57;71.49
22333;BME280;11334;36.986;-121.936;2023-05-31T06:01:14;101110.63;;;17.57;71.39
22333;BME280;11334;36.986;-121.936;2023-05-31T06:03:49;101100.38;;;17.46;71.37
22333;BME280;11334;36.986;-121.936;2023-05-31T06:06:16;101108.91;;;17.49;71.80
22333;BME280;11334;36.986;-121.936;2023-05-31T06:08:46;101100.09;;;17.35;72.63
22333;BME280;11334;36.986;-121.936;2023-05-31T06:11:13;101103.34;;;17.30;73.12
22333;BME280;11334;36.986;-121.936;2023-05-31T06:13:44;101107.28;;;17.34;73.12
22333;BME280;11334;36.986;-121.936;2023-05-31T06:16:14;101087.75;;;17.19;73.93
22333;BME280;11334;36.986;-121.936;2023-05-31T06:18:40;101102.03;;;17.26;74.18
22333;BME280;11334;36.986;-121.936;2023-05-31T06:21:06;101102.56;;;17.15;74.45
22333;BME280;11334;36.986;-121.936;2023-05-31T06:23:33;101099.97;;;17.08;74.70
22333;BME280;11334;36.986;-121.936;2023-05-31T06:26:00;101103.25;;;17.09;74.81
22333;BME280;11334;36.986;-121.936;2023-05-31T06:28:26;101100.31;;;17.05;74.53
22333;BME280;11334;36.986;-121.936;2023-05-31T06:30:53;101098.03;;;17.02;75.04
22333;BME280;11334;36.986;-121.936;2023-05-31T06:33:19;101096.81;;;17.04;75.07
22333;BME280;11334;36.986;-121.936;2023-05-31T06:35:45;101101.00;;;16.92;75.97
22333;BME280;11334;36.986;-121.936;2023-05-31T06:38:12;101097.72;;;16.90;76.15
22333;BME280;11334;36.986;-121.936;2023-05-31T06:40:43;101099.34;;;16.91;76.30
22333;BME280;11334;36.986;-121.936;2023-05-31T06:43:09;101082.41;;;16.70;76.80
22333;BME280;11334;36.986;-121.936;2023-05-31T06:45:36;101100.13;;;16.85;76.53
22333;BME280;11334;36.986;-121.936;2023-05-31T06:48:04;101096.53;;;16.78;77.38
22333;BME280;11334;36.986;-121.936;2023-05-31T06:50:30;101088.13;;;16.67;77.36
22333;BME280;11334;36.986;-121.936;2023-05-31T06:52:56;101088.34;;;16.66;76.69
22333;BME280;11334;36.986;-121.936;2023-05-31T06:55:23;101091.56;;;16.61;76.51
22333;BME280;11334;36.986;-121.936;2023-05-31T06:57:49;101091.38;;;16.63;76.22
22333;BME280;11334;36.986;-121.936;2023-05-31T07:00:16;101086.50;;;16.66;75.99
22333;BME280;11334;36.986;-121.936;2023-05-31T07:02:43;101088.53;;;16.64;75.97
22333;BME280;11334;36.986;-121.936;2023-05-31T07:05:09;101099.41;;;16.63;75.63
22333;BME280;11334;36.986;-121.936;2023-05-31T07:07:35;101094.53;;;16.66;75.62
22333;BME280;11334;36.986;-121.936;2023-05-31T07:10:02;101085.41;;;16.61;75.39
22333;BME280;11334;36.986;-121.936;2023-05-31T07:12:28;101087.44;;;16.59;75.45
22333;BME280;11334;36.986;-121.936;2023-05-31T07:14:55;101086.41;;;16.60;75.50
22333;BME280;11334;36.986;-121.936;2023-05-31T07:17:21;101083.94;;;16.58;75.53
22333;BME280;11334;36.986;-121.936;2023-05-31T07:19:48;101077.09;;;16.56;75.20
22333;BME280;11334;36.986;-121.936;2023-05-31T07:22:15;101073.94;;;16.52;75.35
22333;BME280;11334;36.986;-121.936;2023-05-31T07:24:43;101072.84;;;16.47;75.75
22333;BME280;11334;36.986;-121.936;2023-05-31T07:27:09;101077.75;;;16.44;75.74
22333;BME280;11334;36.986;-121.936;2023-05-31T07:29:36;101074.22;;;16.43;75.71
22333;BME280;11334;36.986;-121.936;2023-05-31T07:32:03;101075.19;;;16.36;75.73
22333;BME280;11334;36.986;-121.936;2023-05-31T07:34:29;101077.38;;;16.32;75.70
22333;BME280;11334;36.986;-121.936;2023-05-31T07:36:55;101075.56;;;16.18;75.91
22333;BME280;11334;36.986;-121.936;2023-05-31T07:39:22;101077.88;;;16.21;76.05
22333;BME280;11334;36.986;-121.936;2023-05-31T07:41:48;101080.91;;;16.18;76.03
22333;BME280;11334;36.986;-121.936;2023-05-31T07:44:14;101067.41;;;16.12;76.07
22333;BME280;11334;36.986;-121.936;2023-05-31T07:46:45;101082.28;;;16.14;76.29
22333;BME280;11334;36.986;-121.936;2023-05-31T07:49:11;101054.22;;;15.96;76.46
22333;BME280;11334;36.986;-121.936;2023-05-31T07:51:38;101055.03;;;15.97;76.79
22333;BME280;11334;36.986;-121.936;2023-05-31T07:54:04;101058.25;;;15.92;76.62
22333;BME280;11334;36.986;-121.936;2023-05-31T07:56:31;101066.53;;;15.83;77.02
22333;BME280;11334;36.986;-121.936;2023-05-31T07:58:57;101064.06;;;15.81;77.34
22333;BME280;11334;36.986;-121.936;2023-05-31T08:01:23;101046.81;;;15.70;77.33
22333;BME280;11334;36.986;-121.936;2023-05-31T08:03:49;101032.81;;;15.68;77.21
22333;BME280;11334;36.986;-121.936;2023-05-31T08:06:17;101052.25;;;15.76;77.19
22333;BME280;11334;36.986;-121.936;2023-05-31T08:08:43;101046.81;;;15.70;77.75
22333;BME280;11334;36.986;-121.936;2023-05-31T08:11:10;101046.81;;;15.70;77.88
22333;BME280;11334;36.986;-121.936;2023-05-31T08:13:38;101039.88;;;15.61;78.58
22333;BME280;11334;36.986;-121.936;2023-05-31T08:16:05;101038.75;;;15.55;78.51
22333;BME280;11334;36.986;-121.936;2023-05-31T08:18:31;101035.34;;;15.61;78.53
22333;BME280;11334;36.986;-121.936;2023-05-31T08:20:57;101030.88;;;15.62;78.47
22333;BME280;11334;36.986;-121.936;2023-05-31T08:23:24;101044.41;;;15.60;79.11
22333;BME280;11334;36.986;-121.936;2023-05-31T08:25:50;101039.59;;;15.56;79.90
22333;BME280;11334;36.986;-121.936;2023-05-31T08:28:18;101030.38;;;15.58;79.65
22333;BME280;11334;36.986;-121.936;2023-05-31T08:30:45;101035.94;;;15.57;80.04
22333;BME280;11334;36.986;-121.936;2023-05-31T08:33:11;101032.97;;;15.52;80.63
22333;BME280;11334;36.986;-121.936;2023-05-31T08:35:37;101032.84;;;15.46;81.34
22333;BME280;11334;36.986;-121.936;2023-05-31T08:38:05;101018.75;;;15.51;81.34
22333;BME280;11334;36.986;-121.936;2023-05-31T08:40:31;101035.28;;;15.55;81.44
22333;BME280;11334;36.986;-121.936;2023-05-31T08:45:26;101028.81;;;15.64;81.63
22333;BME280;11334;36.986;-121.936;2023-05-31T08:48:05;101023.59;;;15.70;81.89
22333;BME280;11334;36.986;-121.936;2023-05-31T08:50:35;101021.94;;;15.69;81.66
22333;BME280;11334;36.986;-121.936;2023-05-31T08:53:02;101028.13;;;15.70;81.93
22333;BME280;11334;36.986;-121.936;2023-05-31T08:55:30;101027.84;;;15.79;81.58
22333;BME280;11334;36.986;-121.936;2023-05-31T08:57:56;101026.19;;;15.78;81.44
22333;BME280;11334;36.986;-121.936;2023-05-31T09:00:24;101030.16;;;15.82;81.37
22333;BME280;11334;36.986;-121.936;2023-05-31T09:02:51;101022.50;;;15.79;81.28
22333;BME280;11334;36.986;-121.936;2023-05-31T09:05:17;101027.94;;;15.85;81.30
22333;BME280;11334;36.986;-121.936;2023-05-31T09:07:43;101017.44;;;15.84;81.49
22333;BME280;11334;36.986;-121.936;2023-05-31T09:10:10;101019.09;;;15.85;81.49
22333;BME280;11334;36.986;-121.936;2023-05-31T09:12:39;101019.09;;;15.85;81.61
22333;BME280;11334;36.986;-121.936;2023-05-31T09:15:06;101007.38;;;15.86;81.50
22333;BME280;11334;36.986;-121.936;2023-05-31T09:17:33;101015.13;;;15.95;81.30
22333;BME280;11334;36.986;-121.936;2023-05-31T09:20:00;101020.31;;;15.97;80.74
22333;BME280;11334;36.986;-121.936;2023-05-31T09:22:27;101021.13;;;15.97;80.84
22333;BME280;11334;36.986;-121.936;2023-05-31T09:24:57;101020.56;;;16.02;80.60
22333;BME280;11334;36.986;-121.936;2023-05-31T09:27:25;101019.56;;;16.03;80.34
22333;BME280;11334;36.986;-121.936;2023-05-31T09:29:53;101023.69;;;16.05;80.36
22333;BME280;11334;36.986;-121.936;2023-05-31T09:32:20;101022.44;;;16.01;80.35
22333;BME280;11334;36.986;-121.936;2023-05-31T09:34:46;101012.56;;;16.02;79.87
22333;BME280;11334;36.986;-121.936;2023-05-31T09:37:22;101014.69;;;15.92;79.53
22333;BME280;11334;36.986;-121.936;2023-05-31T09:39:55;101017.34;;;15.78;79.67
22333;BME280;11334;36.986;-121.936;2023-05-31T09:42:24;101005.25;;;15.67;80.00
22333;BME280;11334;36.986;-121.936;2023-05-31T09:44:51;101014.19;;;15.60;80.95
22333;BME280;11334;36.986;-121.936;2023-05-31T09:47:23;101013.69;;;15.56;81.44
22333;BME280;11334;36.986;-121.936;2023-05-31T09:49:53;101011.03;;;15.56;81.95
22333;BME280;11334;36.986;-121.936;2023-05-31T09:52:25;101013.69;;;15.56;81.82
22333;BME280;11334;36.986;-121.936;2023-05-31T09:54:55;101014.00;;;15.61;82.27
22333;BME280;11334;36.986;-121.936;2023-05-31T09:57:29;100997.88;;;15.55;83.16
22333;BME280;11334;36.986;-121.936;2023-05-31T09:59:57;100996.69;;;15.57;83.08
22333;BME280;11334;36.986;-121.936;2023-05-31T10:02:26;100999.72;;;15.54;83.36
22333;BME280;11334;36.986;-121.936;2023-05-31T10:04:56;100998.53;;;15.57;83.54
22333;BME280;11334;36.986;-121.936;2023-05-31T10:07:23;100999.34;;;15.57;83.21
22333;BME280;11334;36.986;-121.936;2023-05-31T10:09:50;100997.13;;;15.61;83.34
22333;BME280;11334;36.986;-121.936;2023-05-31T10:12:18;100992.81;;;15.60;83.38
22333;BME280;11334;36.986;-121.936;2023-05-31T10:14:51;100991.25;;;15.65;83.33
22333;BME280;11334;36.986;-121.936;2023-05-31T10:17:23;100991.25;;;15.65;83.70
22333;BME280;11334;36.986;-121.936;2023-05-31T10:19:58;100993.94;;;15.65;83.52
22333;BME280;11334;36.986;-121.936;2023-05-31T10:22:30;100983.69;;;15.69;83.32
22333;BME280;11334;36.986;-121.936;2023-05-31T10:25:06;100986.19;;;15.70;83.04
22333;BME280;11334;36.986;-121.936;2023-05-31T10:27:37;100990.97;;;15.60;83.24
22333;BME280;11334;36.986;-121.936;2023-05-31T10:30:04;100981.88;;;15.69;82.83
22333;BME280;11334;36.986;-121.936;2023-05-31T10:32:42;100982.50;;;15.71;82.75
22333;BME280;11334;36.986;-121.936;2023-05-31T10:35:10;100977.63;;;15.75;82.85
22333;BME280;11334;36.986;-121.936;2023-05-31T10:37:40;100970.72;;;15.80;82.88
22333;BME280;11334;36.986;-121.936;2023-05-31T10:41:02;100981.22;;;15.81;82.80
22333;BME280;11334;36.986;-121.936;2023-05-31T10:43:22;100978.72;;;15.80;82.36
22333;BME280;11334;36.986;-121.936;2023-05-31T10:46:10;100975.78;;;15.75;82.18
22333;BME280;11334;36.986;-121.936;2023-05-31T10:48:55;100980.59;;;15.80;82.24
22333;BME280;11334;36.986;-121.936;2023-05-31T10:51:45;100973.84;;;15.69;83.29
22333;BME280;11334;36.986;-121.936;2023-05-31T10:54:19;100970.34;;;15.69;83.36
22333;BME280;11334;36.986;-121.936;2023-05-31T10:56:53;100965.91;;;15.61;83.54
22333;BME280;11334;36.986;-121.936;2023-05-31T10:59:21;100972.19;;;15.68;83.65
22333;BME280;11334;36.986;-121.936;2023-05-31T11:01:48;100967.31;;;15.72;83.82
22333;BME280;11334;36.986;-121.936;2023-05-31T11:04:26;100966.66;;;15.70;83.97
22333;BME280;11334;36.986;-121.936;2023-05-31T11:06:54;100964.66;;;15.72;84.07
22333;BME280;11334;36.986;-121.936;2023-05-31T11:09:21;100970.53;;;15.67;84.23
22333;BME280;11334;36.986;-121.936;2023-05-31T11:11:49;100958.81;;;15.68;84.19
22333;BME280;11334;36.986;-121.936;2023-05-31T11:19:18;100959.75;;;15.75;83.30
22333;BME280;11334;36.986;-121.936;2023-05-31T11:21:50;100964.16;;;15.68;83.52
22333;BME280;11334;36.986;-121.936;2023-05-31T11:27:20;100938.00;;;15.64;83.34
22333;BME280;11334;36.986;-121.936;2023-05-31T11:32:53;100952.81;;;15.66;83.39
22333;BME280;11334;36.986;-121.936;2023-05-31T11:35:16;100941.44;;;15.72;83.27
22333;BME280;11334;36.986;-121.936;2023-05-31T11:37:43;100951.19;;;15.65;83.44
22333;BME280;11334;36.986;-121.936;2023-05-31T11:40:10;100943.34;;;15.64;83.67
22333;BME280;11334;36.986;-121.936;2023-05-31T11:42:42;100943.16;;;15.65;84.08
22333;BME280;11334;36.986;-121.936;2023-05-31T11:45:13;100933.50;;;15.64;83.60
22333;BME280;11334;36.986;-121.936;2023-05-31T11:47:49;100946.50;;;15.67;84.14
22333;BME280;11334;36.986;-121.936;2023-05-31T11:50:19;100936.63;;;15.53;84.71
22333;BME280;11334;36.986;-121.936;2023-05-31T11:52:45;100940.97;;;15.54;84.69
22333;BME280;11334;36.986;-121.936;2023-05-31T11:55:15;100949.06;;;15.61;84.87
22333;BME280;11334;36.986;-121.936;2023-05-31T11:57:44;100945.03;;;15.65;84.93
22333;BME280;11334;36.986;-121.936;2023-05-31T12:00:12;100938.19;;;15.62;85.11
22333;BME280;11334;36.986;-121.936;2023-05-31T12:02:42;100935.16;;;15.65;84.98
22333;BME280;11334;36.986;-121.936;2023-05-31T12:05:15;100949.53;;;15.64;84.77
22333;BME280;11334;36.986;-121.936;2023-05-31T12:07:42;100948.06;;;15.62;84.25
22333;BME280;11334;36.986;-121.936;2023-05-31T12:10:09;100940.88;;;15.62;84.86
22333;BME280;11334;36.986;-121.936;2023-05-31T12:12:38;100933.69;;;15.63;84.35
22333;BME280;11334;36.986;-121.936;2023-05-31T12:15:04;100949.53;;;15.64;84.33
22333;BME280;11334;36.986;-121.936;2023-05-31T12:17:31;100938.28;;;15.54;85.03
22333;BME280;11334;36.986;-121.936;2023-05-31T12:19:59;100949.88;;;15.61;85.15
22333;BME280;11334;36.986;-121.936;2023-05-31T12:22:25;100943.16;;;15.65;85.19
22333;BME280;11334;36.986;-121.936;2023-05-31T12:24:54;100957.19;;;15.67;85.17
22333;BME280;11334;36.986;-121.936;2023-05-31T12:27:25;100944.75;;;15.74;84.86
22333;BME280;11334;36.986;-121.936;2023-05-31T12:29:56;100949.81;;;15.69;84.90
22333;BME280;11334;36.986;-121.936;2023-05-31T12:32:23;100927.50;;;15.62;84.97
22333;BME280;11334;36.986;-121.936;2023-05-31T12:35:05;100943.28;;;15.72;84.96
22333;BME280;11334;36.986;-121.936;2023-05-31T12:37:35;100943.56;;;15.77;84.62
22333;BME280;11334;36.986;-121.936;2023-05-31T12:42:38;100946.66;;;15.80;83.97